Time;durP1;ratioP1;P1;durP2;ratioP2;P2;SDS_P1;SDS_P2;PMS_P1;PMS_P2;Temp;Humidity;BMP_temperature;BMP_pressure;BME280_temperature;BME280_humidity;BME280_pressure;Samples;Min_cycle;Max_cycle;Signal;HPM_P1;HPM_P2
2022/09/09 00:01:51;;;;;;;48.70;34.75;;;;;;;13.42;100.00;100666.97;4975001;28;20208;-43
2022/09/09 00:04:33;;;;;;;51.45;36.15;;;;;;;13.43;100.00;100663.34;4977925;28;20653;-46
2022/09/09 00:07:09;;;;;;;50.10;35.67;;;;;;;13.39;100.00;100653.69;4980394;28;20213;-45
2022/09/09 00:09:44;;;;;;;48.08;33.55;;;;;;;13.45;100.00;100650.69;4985814;28;20208;-45
2022/09/09 00:12:14;;;;;;;52.15;35.88;;;;;;;13.41;100.00;100657.19;4978876;28;20550;-43
2022/09/09 00:14:56;;;;;;;53.72;36.28;;;;;;;13.39;100.00;100649.19;4974080;28;20178;-46
2022/09/09 00:17:41;;;;;;;59.45;38.53;;;;;;;13.43;100.00;100654.41;4983124;28;20220;-44
2022/09/09 00:20:23;;;;;;;49.25;34.92;;;;;;;13.47;100.00;100661.34;4975522;28;20205;-44
2022/09/09 00:23:00;;;;;;;56.05;36.85;;;;;;;13.43;100.00;100649.03;4976735;28;20561;-42
2022/09/09 00:25:37;;;;;;;55.65;38.85;;;;;;;13.42;100.00;100650.81;4980641;28;20498;-45
2022/09/09 00:28:14;;;;;;;51.55;35.38;;;;;;;13.48;100.00;100644.25;4982171;28;20209;-41
2022/09/09 00:30:41;;;;;;;50.63;36.88;;;;;;;13.48;100.00;100653.19;4975315;28;20189;-46
2022/09/09 00:33:14;;;;;;;52.20;36.88;;;;;;;13.51;100.00;100646.78;4984117;28;20173;-44
2022/09/09 00:36:11;;;;;;;56.47;38.00;;;;;;;13.49;100.00;100636.13;4978299;28;20228;-44
2022/09/09 00:38:49;;;;;;;52.92;37.83;;;;;;;13.45;100.00;100645.31;4983233;28;20209;-43
2022/09/09 00:41:37;;;;;;;48.75;35.55;;;;;;;13.46;100.00;100638.94;4978565;28;20284;-46
2022/09/09 00:44:18;;;;;;;61.17;41.38;;;;;;;13.42;100.00;100641.88;4984396;28;20636;-44
2022/09/09 00:46:50;;;;;;;55.75;38.50;;;;;;;13.46;100.00;100638.94;4987033;28;20235;-45
2022/09/09 00:49:30;;;;;;;61.60;41.38;;;;;;;13.49;100.00;100637.91;4979817;28;20240;-46
2022/09/09 00:52:10;;;;;;;50.72;38.17;;;;;;;13.49;100.00;100627.16;4978112;28;20185;-45
2022/09/09 00:55:18;;;;;;;63.08;41.88;;;;;;;13.42;100.00;100634.69;4981827;28;20184;-43
2022/09/09 00:57:46;;;;;;;58.65;41.47;;;;;;;13.44;100.00;100643.53;4953285;28;20225;-43
2022/09/09 01:00:18;;;;;;;66.65;43.47;;;;;;;13.45;100.00;100631.84;4978169;28;20491;-45
2022/09/09 01:03:08;;;;;;;61.35;42.13;;;;;;;13.48;100.00;100645.13;4986332;28;20189;-43
2022/09/09 01:05:51;;;;;;;64.82;43.03;;;;;;;13.44;100.00;100640.00;4990596;28;20232;-43
2022/09/09 01:08:17;;;;;;;64.22;44.65;;;;;;;13.48;100.00;100631.66;4981451;28;20724;-43
2022/09/09 01:10:53;;;;;;;64.43;43.33;;;;;;;13.47;100.00;100635.31;4979823;28;20212;-43
2022/09/09 01:13:25;;;;;;;67.82;45.83;;;;;;;13.47;100.00;100635.31;4985411;28;20673;-44
2022/09/09 01:15:53;;;;;;;63.58;43.22;;;;;;;13.49;100.00;100629.84;4975506;28;20213;-46
2022/09/09 01:18:24;;;;;;;63.08;43.85;;;;;;;13.52;100.00;100637.75;4982175;28;20193;-44
2022/09/09 01:21:13;;;;;;;61.15;43.17;;;;;;;13.49;100.00;100622.66;4972688;28;20188;-45
2022/09/09 01:24:05;;;;;;;60.38;41.42;;;;;;;13.49;100.00;100622.66;4969803;28;20299;-42
2022/09/09 01:26:45;;;;;;;53.00;38.75;;;;;;;13.53;100.00;100623.34;4974383;28;20221;-45
2022/09/09 01:29:24;;;;;;;53.42;39.20;;;;;;;13.46;100.00;100633.56;4974218;28;20228;-44
2022/09/09 01:32:01;;;;;;;54.13;39.58;;;;;;;13.49;100.00;100622.66;4980218;28;20181;-44
2022/09/09 01:34:35;;;;;;;55.05;39.38;;;;;;;13.47;100.00;100637.13;4984987;28;20639;-46
2022/09/09 01:37:07;;;;;;;50.92;38.80;;;;;;;13.48;100.00;100628.97;4976394;28;20301;-43
2022/09/09 01:39:35;;;;;;;43.58;35.90;;;;;;;13.50;100.00;100632.47;4983088;28;20190;-46
2022/09/09 01:42:06;;;;;;;49.92;36.83;;;;;;;13.55;100.00;100621.44;4974969;28;20658;-45
2022/09/09 01:44:33;;;;;;;56.58;39.83;;;;;;;13.50;100.00;100624.38;4986174;28;20638;-45
2022/09/09 01:46:59;;;;;;;54.08;38.92;;;;;;;13.48;100.00;100625.41;4978467;28;20600;-41
2022/09/09 01:49:25;;;;;;;57.63;39.97;;;;;;;13.48;100.00;100620.03;4978226;28;20205;-46
2022/09/09 01:51:56;;;;;;;43.72;33.50;;;;;;;13.53;100.00;100624.19;4982763;28;20182;-43
2022/09/09 01:54:35;;;;;;;52.72;38.33;;;;;;;13.50;100.00;100628.91;4976185;28;20191;-43
2022/09/09 01:57:12;;;;;;;51.78;37.13;;;;;;;13.51;100.00;100641.41;4978673;28;20290;-43
2022/09/09 01:59:53;;;;;;;54.10;37.95;;;;;;;13.48;100.00;100641.56;4986869;28;20206;-45
2022/09/09 02:02:25;;;;;;;55.63;37.83;;;;;;;13.44;100.00;100640.00;4973884;28;20273;-45
2022/09/09 02:05:25;;;;;;;58.80;38.03;;;;;;;13.46;100.00;100636.25;4974537;28;20225;-46
2022/09/09 02:08:00;;;;;;;57.17;37.22;;;;;;;13.43;100.00;100640.97;4970033;28;20214;-44
2022/09/09 02:10:46;;;;;;;50.63;36.55;;;;;;;13.44;100.00;100638.16;4979340;28;20272;-45
2022/09/09 02:13:22;;;;;;;47.45;36.10;;;;;;;13.48;100.00;100631.66;4984582;28;20193;-46
2022/09/09 02:15:57;;;;;;;49.35;34.70;;;;;;;13.52;100.00;100633.25;4985480;28;20619;-45
2022/09/09 02:18:34;;;;;;;50.38;35.38;;;;;;;13.48;100.00;100637.06;4980379;28;20559;-43
2022/09/09 02:21:02;;;;;;;49.55;35.03;;;;;;;13.46;100.00;100636.25;4980967;28;20189;-46
2022/09/09 02:23:29;;;;;;;53.55;35.80;;;;;;;13.48;100.00;100637.06;4981264;28;20276;-44
2022/09/09 02:25:58;;;;;;;47.65;35.30;;;;;;;13.47;100.00;100632.63;4988602;28;20185;-43
2022/09/09 02:28:28;;;;;;;48.47;35.13;;;;;;;13.47;100.00;100635.31;4981612;28;20228;-45
2022/09/09 02:30:54;;;;;;;48.90;34.65;;;;;;;13.47;100.00;100642.50;4989123;28;20611;-45
2022/09/09 02:33:28;;;;;;;52.47;34.55;;;;;;;13.45;100.00;100639.91;4986114;28;20206;-42
2022/09/09 02:36:01;;;;;;;52.28;34.78;;;;;;;13.43;100.00;100639.13;4986268;28;20221;-43
2022/09/09 02:38:32;;;;;;;45.15;32.60;;;;;;;13.43;100.00;100635.56;4979261;28;20205;-45
2022/09/09 02:41:06;;;;;;;48.22;32.85;;;;;;;13.45;100.00;100631.84;4983179;28;20264;-46
2022/09/09 02:43:33;;;;;;;36.13;28.17;;;;;;;13.53;100.00;100636.81;4970478;28;20186;-44
2022/09/09 02:46:02;;;;;;;44.75;31.70;;;;;;;13.53;100.00;100644.88;4982779;28;20201;-46
2022/09/09 02:48:55;;;;;;;53.33;34.58;;;;;;;13.51;100.00;100644.97;4983418;28;20665;-43
2022/09/09 02:51:31;;;;;;;48.88;34.38;;;;;;;13.51;100.00;100638.69;4982085;28;20185;-46
2022/09/09 02:54:03;;;;;;;41.17;31.20;;;;;;;13.58;100.00;100642.81;4970677;28;20255;-45
2022/09/09 02:56:33;;;;;;;41.75;31.73;;;;;;;13.63;100.00;100634.50;4983490;28;20214;-43
2022/09/09 02:59:03;;;;;;;54.35;35.90;;;;;;;13.56;100.00;100640.22;4987314;28;20189;-46
2022/09/09 03:01:29;;;;;;;50.55;35.60;;;;;;;13.55;100.00;100648.34;4980080;28;20193;-46
2022/09/09 03:03:55;;;;;;;50.80;35.67;;;;;;;13.53;100.00;100634.97;4976011;28;20205;-47
2022/09/09 03:06:21;;;;;;;52.45;36.75;;;;;;;13.59;100.00;100641.88;4982482;28;20216;-44
2022/09/09 03:08:53;;;;;;;58.03;38.28;;;;;;;13.57;100.00;100633.00;4979384;28;20261;-45
2022/09/09 03:11:25;;;;;;;58.80;38.78;;;;;;;13.54;100.00;100635.88;4972700;28;20204;-47
2022/09/09 03:13:51;;;;;;;58.80;37.80;;;;;;;13.56;100.00;100640.22;4972904;28;20253;-47
2022/09/09 03:16:19;;;;;;;66.35;40.45;;;;;;;13.49;100.00;100632.53;4971438;28;20289;-46
2022/09/09 03:18:48;;;;;;;65.70;39.25;;;;;;;13.50;100.00;100645.06;4981718;28;20188;-46
2022/09/09 03:21:14;;;;;;;68.55;42.15;;;;;;;13.48;100.00;100634.34;4976193;28;20273;-43
2022/09/09 03:23:40;;;;;;;73.25;44.08;;;;;;;13.50;100.00;100637.84;4982350;28;20286;-46
2022/09/09 03:26:06;;;;;;;74.35;43.60;;;;;;;13.53;100.00;100637.66;4983184;28;20268;-45
2022/09/09 03:28:42;;;;;;;70.18;41.85;;;;;;;13.53;100.00;100636.81;4981497;28;20220;-45
2022/09/09 03:31:10;;;;;;;76.88;43.60;;;;;;;13.51;100.00;100649.47;4976348;28;20292;-43
2022/09/09 03:33:39;;;;;;;77.50;44.92;;;;;;;13.52;100.00;100653.91;4989990;28;20280;-44
2022/09/09 03:36:07;;;;;;;72.40;43.80;;;;;;;13.53;100.00;100648.44;4979745;28;20181;-44
2022/09/09 03:38:33;;;;;;;85.95;47.40;;;;;;;13.48;100.00;100655.88;4986251;28;20181;-45
2022/09/09 03:41:00;;;;;;;90.05;47.58;;;;;;;13.47;100.00;100659.53;4980816;28;20220;-43
2022/09/09 03:43:27;;;;;;;77.70;45.03;;;;;;;13.53;100.00;100655.63;4977006;28;20197;-42
2022/09/09 03:45:54;;;;;;;80.35;47.20;;;;;;;13.47;100.00;100648.78;4976011;28;20617;-45
2022/09/09 03:48:19;;;;;;;85.70;47.53;;;;;;;13.47;100.00;100650.56;4983352;28;20226;-44
2022/09/09 03:50:46;;;;;;;96.68;49.28;;;;;;;13.42;100.00;100648.13;4977999;28;20708;-46
2022/09/09 03:53:12;;;;;;;92.35;51.42;;;;;;;13.40;100.00;100650.03;4979735;28;20185;-43
2022/09/09 03:55:37;;;;;;;99.07;50.33;;;;;;;13.41;100.00;100653.63;4977149;28;20563;-44
2022/09/09 03:58:03;;;;;;;92.38;49.53;;;;;;;13.39;100.00;100649.19;4972310;28;20521;-47
2022/09/09 04:00:30;;;;;;;100.00;50.78;;;;;;;13.38;100.00;100651.94;4973538;28;20574;-43
2022/09/09 04:02:57;;;;;;;115.40;53.47;;;;;;;13.36;100.00;100643.09;4980806;28;20660;-45
2022/09/09 04:05:23;;;;;;;108.63;51.08;;;;;;;13.33;100.00;100640.56;4983801;28;20813;-44
2022/09/09 04:07:48;;;;;;;105.60;50.83;;;;;;;13.27;100.00;100648.91;4977997;28;20209;-44
2022/09/09 04:10:15;;;;;;;100.32;48.60;;;;;;;13.27;100.00;100648.91;4976466;28;20612;-44
2022/09/09 04:12:42;;;;;;;86.97;44.72;;;;;;;13.34;100.00;100655.75;4976485;28;20285;-42
2022/09/09 04:15:08;;;;;;;89.60;46.58;;;;;;;13.25;100.00;100645.44;4973991;28;20284;-43
2022/09/09 04:17:36;;;;;;;82.55;44.90;;;;;;;13.17;100.00;100659.28;4975767;28;20684;-46
2022/09/09 04:20:02;;;;;;;78.88;42.17;;;;;;;13.22;100.00;100657.22;4979140;28;20181;-42
2022/09/09 04:22:27;;;;;;;83.47;43.03;;;;;;;13.19;100.00;100650.19;4979330;28;20242;-44
2022/09/09 04:24:53;;;;;;;86.10;44.35;;;;;;;13.15;100.00;100661.19;4984108;28;20182;-46
2022/09/09 04:27:19;;;;;;;75.40;42.78;;;;;;;13.20;100.00;100654.59;4986264;28;20210;-43
2022/09/09 04:29:45;;;;;;;84.32;43.22;;;;;;;13.19;100.00;100660.94;4978327;28;20189;-46
2022/09/09 04:32:11;;;;;;;81.10;42.83;;;;;;;13.19;100.00;100652.88;4975394;28;20186;-46
2022/09/09 04:34:38;;;;;;;78.38;40.58;;;;;;;13.28;100.00;100651.56;4980928;28;20182;-44
2022/09/09 04:37:03;;;;;;;74.45;41.05;;;;;;;13.28;100.00;100662.31;4976192;28;20212;-44
2022/09/09 04:39:29;;;;;;;78.85;42.42;;;;;;;13.26;100.00;100664.19;4979352;28;20640;-45
2022/09/09 04:41:55;;;;;;;86.43;44.42;;;;;;;13.29;100.00;100673.94;4988634;28;20193;-43
2022/09/09 04:44:21;;;;;;;77.47;42.63;;;;;;;13.33;100.00;100675.53;4978586;28;20196;-46
2022/09/09 04:46:47;;;;;;;83.43;43.78;;;;;;;13.27;100.00;100670.44;4970982;28;20214;-46
2022/09/09 04:49:13;;;;;;;80.03;42.65;;;;;;;13.27;100.00;100663.25;4981375;28;20510;-45
2022/09/09 04:51:39;;;;;;;93.30;45.95;;;;;;;13.24;100.00;100670.59;4979243;28;20196;-42
2022/09/09 04:54:05;;;;;;;78.00;40.75;;;;;;;13.21;100.00;100674.34;4981727;28;20189;-46
2022/09/09 04:56:31;;;;;;;79.32;41.58;;;;;;;13.12;100.00;100662.22;4972578;28;20222;-43
2022/09/09 04:58:58;;;;;;;68.68;38.22;;;;;;;13.17;100.00;100670.91;4978571;28;20200;-45
2022/09/09 05:01:36;;;;;;;79.10;41.70;;;;;;;13.11;100.00;100670.38;4970579;28;20193;-43
2022/09/09 05:04:03;;;;;;;75.65;40.80;;;;;;;13.17;100.00;100670.06;4975476;28;20244;-43
2022/09/09 05:06:31;;;;;;;78.90;42.55;;;;;;;13.18;100.00;100672.69;4978081;28;20359;-46
2022/09/09 05:08:59;;;;;;;69.90;40.72;;;;;;;13.21;100.00;100677.03;4988228;28;20185;-44
2022/09/09 05:11:31;;;;;;;76.68;42.65;;;;;;;13.22;100.00;100685.97;4981402;28;20256;-43
2022/09/09 05:14:17;;;;;;;75.80;42.17;;;;;;;13.27;100.00;100686.56;4984440;28;20256;-43
2022/09/09 05:16:44;;;;;;;80.82;44.05;;;;;;;13.17;100.00;100694.25;4972816;28;20208;-44
2022/09/09 05:19:11;;;;;;;77.13;43.03;;;;;;;13.19;100.00;100701.31;4978589;28;20268;-44
2022/09/09 05:21:47;;;;;;;76.53;41.67;;;;;;;13.27;100.00;100700.03;4977455;28;20188;-43
2022/09/09 05:24:16;;;;;;;73.38;41.58;;;;;;;13.33;100.00;100707.81;4976003;28;20558;-44
2022/09/09 05:26:43;;;;;;;71.55;41.88;;;;;;;13.32;100.00;100706.97;4966638;28;20209;-46
2022/09/09 05:29:08;;;;;;;72.10;40.33;;;;;;;13.29;100.00;100714.31;4976551;28;20201;-44
2022/09/09 05:31:34;;;;;;;75.28;43.35;;;;;;;13.28;100.00;100704.47;4977504;28;20182;-44
2022/09/09 05:34:03;;;;;;;72.18;41.55;;;;;;;13.31;100.00;100705.19;4976061;28;20289;-43
2022/09/09 05:36:28;;;;;;;72.97;42.55;;;;;;;13.31;100.00;100712.41;4972263;28;20305;-46
2022/09/09 05:38:55;;;;;;;80.00;42.35;;;;;;;13.32;100.00;100703.41;4976415;28;20189;-45
2022/09/09 05:41:22;;;;;;;78.10;44.13;;;;;;;13.32;100.00;100711.47;4972128;28;20684;-44
2022/09/09 05:43:49;;;;;;;77.88;42.88;;;;;;;13.35;100.00;100714.00;4982477;28;20677;-46
2022/09/09 05:46:21;;;;;;;71.65;41.70;;;;;;;13.39;100.00;100718.28;4984077;28;20352;-43
2022/09/09 05:48:53;;;;;;;63.33;39.47;;;;;;;13.45;100.00;100709.91;4980047;28;20276;-45
2022/09/09 05:51:23;;;;;;;73.80;41.75;;;;;;;13.47;100.00;100705.31;4987657;28;20178;-46
2022/09/09 05:53:49;;;;;;;73.63;42.50;;;;;;;13.42;100.00;100723.50;4978349;28;20645;-46
2022/09/09 05:56:21;;;;;;;69.43;41.85;;;;;;;13.43;100.00;100714.47;4982395;28;20182;-46
2022/09/09 05:58:49;;;;;;;72.32;43.25;;;;;;;13.38;100.00;100714.72;4979137;28;20327;-45
2022/09/09 06:01:24;;;;;;;76.60;44.15;;;;;;;13.43;100.00;100710.94;4982455;28;20194;-46
2022/09/09 06:03:54;;;;;;;65.15;40.95;;;;;;;13.48;100.00;100715.09;4981098;28;20185;-44
2022/09/09 06:06:25;;;;;;;66.00;41.15;;;;;;;13.52;100.00;100711.31;4971500;28;20206;-43
2022/09/09 06:08:57;;;;;;;71.28;42.20;;;;;;;13.49;100.00;100721.34;4980636;28;20189;-43
2022/09/09 06:11:26;;;;;;;68.05;42.30;;;;;;;13.46;100.00;100717.00;4979321;28;20181;-43
2022/09/09 06:13:53;;;;;;;74.97;42.00;;;;;;;13.46;100.00;100711.63;4982317;28;20273;-45
2022/09/09 06:16:25;;;;;;;70.40;42.28;;;;;;;13.44;100.00;100715.34;4962596;28;20210;-43
2022/09/09 06:18:52;;;;;;;74.63;40.63;;;;;;;13.50;100.00;100715.91;4976351;28;20270;-43
2022/09/09 06:21:21;;;;;;;73.55;41.70;;;;;;;13.56;100.00;100720.09;4974489;28;20186;-42
2022/09/09 06:23:47;;;;;;;71.72;40.33;;;;;;;13.59;100.00;100723.47;4974364;28;20200;-44
2022/09/09 06:26:18;;;;;;;75.57;40.58;;;;;;;13.55;100.00;100729.97;4981958;28;20240;-45
2022/09/09 06:28:49;;;;;;;77.85;40.72;;;;;;;13.62;100.00;100727.81;4976661;28;20543;-46
2022/09/09 06:31:23;;;;;;;69.57;38.78;;;;;;;13.62;100.00;100735.03;4979967;28;20264;-45
2022/09/09 06:33:51;;;;;;;75.85;40.20;;;;;;;13.70;100.00;100739.06;4978104;28;20191;-42
2022/09/09 06:36:19;;;;;;;77.43;40.60;;;;;;;13.71;100.00;100742.63;4986438;28;20214;-49
2022/09/09 06:38:46;;;;;;;79.45;41.17;;;;;;;13.71;100.00;100739.94;4988620;28;20190;-45
2022/09/09 06:41:15;;;;;;;79.68;41.85;;;;;;;13.72;100.00;100726.41;4986628;28;20236;-48
2022/09/09 06:43:42;;;;;;;80.63;41.30;;;;;;;13.76;100.00;100738.75;4989308;28;20174;-45
2022/09/09 06:46:15;;;;;;;80.65;41.03;;;;;;;13.80;100.00;100724.19;4988277;28;20223;-46
2022/09/09 06:48:42;;;;;;;84.15;42.17;;;;;;;13.84;100.00;100730.28;4987914;28;20194;-46
2022/09/09 06:51:22;;;;;;;86.75;42.50;;;;;;;13.97;100.00;100717.00;4986502;28;20225;-47
2022/09/09 06:53:51;;;;;;;80.78;42.17;;;;;;;13.96;100.00;100732.28;4985124;28;20174;-51
2022/09/09 06:56:23;;;;;;;82.95;42.08;;;;;;;14.02;100.00;100733.81;4972065;28;20206;-46
2022/09/09 06:58:52;;;;;;;73.68;39.42;;;;;;;13.95;100.00;100726.97;4980794;28;20285;-47
2022/09/09 07:01:28;;;;;;;78.53;40.45;;;;;;;13.89;100.00;100727.34;4982000;28;20186;-46
2022/09/09 07:03:58;;;;;;;78.97;41.75;;;;;;;13.87;100.00;100734.63;4960146;28;20276;-46
2022/09/09 07:06:27;;;;;;;73.93;41.33;;;;;;;13.97;100.00;100725.97;4990796;28;20221;-45
2022/09/09 07:08:59;;;;;;;76.10;40.22;;;;;;;14.11;100.00;100724.34;4971930;28;20432;-45
2022/09/09 07:11:28;;;;;;;77.65;42.15;;;;;;;14.24;100.00;100729.94;4986649;28;20721;-47
2022/09/09 07:13:57;;;;;;;71.07;40.03;;;;;;;14.22;100.00;100728.19;4979963;28;20579;-46
2022/09/09 07:16:27;;;;;;;67.97;38.85;;;;;;;14.66;100.00;100723.13;4978939;28;20218;-42
2022/09/09 07:18:56;;;;;;;65.30;38.95;;;;;;;15.11;100.00;100729.50;4977602;28;20284;-51
2022/09/09 07:21:21;;;;;;;60.47;37.35;;;;;;;15.07;100.00;100722.56;4983743;28;20182;-49
2022/09/09 07:23:47;;;;;;;54.72;36.92;;;;;;;14.90;100.00;100723.53;4986896;28;20703;-50
2022/09/09 07:26:19;;;;;;;52.50;36.15;;;;;;;15.25;100.00;100721.47;4973432;28;20190;-48
2022/09/09 07:28:45;;;;;;;52.20;34.58;;;;;;;15.41;100.00;100716.00;4982460;28;20279;-49
2022/09/09 07:31:16;;;;;;;48.15;34.95;;;;;;;15.56;100.00;100723.19;4979716;28;20190;-50
2022/09/09 07:33:44;;;;;;;44.83;33.38;;;;;;;15.80;100.00;100728.09;4980180;28;20190;-46
2022/09/09 07:36:13;;;;;;;43.03;32.72;;;;;;;15.97;100.00;100724.34;4982209;28;20178;-47
2022/09/09 07:38:47;;;;;;;42.33;31.90;;;;;;;16.12;100.00;100715.28;4971996;28;20182;-47
2022/09/09 07:41:17;;;;;;;42.92;31.17;;;;;;;15.96;100.00;100720.78;4982814;28;20280;-48
2022/09/09 07:43:44;;;;;;;40.33;32.35;;;;;;;16.20;100.00;100728.28;4984336;28;20178;-49
2022/09/09 07:46:12;;;;;;;38.53;30.40;;;;;;;16.26;100.00;100736.00;4974570;28;20731;-48
2022/09/09 07:48:39;;;;;;;35.35;30.33;;;;;;;16.01;100.00;100742.09;4972474;28;20190;-46
2022/09/09 07:51:10;;;;;;;38.97;30.08;;;;;;;16.11;100.00;100743.25;4972419;28;20186;-46
2022/09/09 07:53:36;;;;;;;37.97;30.50;;;;;;;16.12;100.00;100736.91;4978618;28;20281;-47
2022/09/09 07:56:07;;;;;;;40.10;30.83;;;;;;;16.33;100.00;100729.25;4972348;28;20626;-47
2022/09/09 07:58:33;;;;;;;34.50;29.70;;;;;;;16.55;100.00;100730.56;4980272;28;20186;-47
2022/09/09 08:00:59;;;;;;;36.83;30.67;;;;;;;16.24;100.00;100746.06;4981614;28;20185;-47
2022/09/09 08:03:24;;;;;;;37.80;30.58;;;;;;;16.48;100.00;100730.94;4976237;28;20193;-46
2022/09/09 08:05:50;;;;;;;32.25;28.33;;;;;;;16.24;100.00;100737.94;4972845;28;20248;-48
2022/09/09 08:08:16;;;;;;;34.90;28.50;;;;;;;16.41;100.00;100737.72;4971899;28;20206;-47
2022/09/09 08:10:42;;;;;;;35.28;28.60;;;;;;;16.83;100.00;100737.78;4974793;28;20264;-47
2022/09/09 08:13:09;;;;;;;36.85;29.85;;;;;;;16.57;100.00;100739.44;4979349;28;20209;-45
2022/09/09 08:15:35;;;;;;;33.10;28.48;;;;;;;16.74;100.00;100736.50;4972614;28;20217;-47
2022/09/09 08:18:03;;;;;;;35.03;28.17;;;;;;;16.98;100.00;100735.91;4982577;28;20229;-49
2022/09/09 08:20:29;;;;;;;31.27;26.85;;;;;;;17.21;100.00;100742.50;4980000;28;20234;-48
2022/09/09 08:22:55;;;;;;;30.75;26.40;;;;;;;17.37;100.00;100742.31;4977649;28;20209;-47
2022/09/09 08:25:21;;;;;;;30.98;25.48;;;;;;;17.68;100.00;100743.78;4979203;28;20595;-47
2022/09/09 08:27:46;;;;;;;30.80;25.08;;;;;;;17.48;98.58;100746.00;4980311;28;20218;-48
2022/09/09 08:30:12;;;;;;;29.15;25.55;;;;;;;17.67;97.75;100739.34;4977797;28;20280;-48
2022/09/09 08:32:38;;;;;;;28.83;25.75;;;;;;;18.04;97.24;100742.22;4946490;28;20786;-47
2022/09/09 08:35:04;;;;;;;30.73;24.38;;;;;;;18.21;97.46;100746.41;4977810;28;20197;-47
2022/09/09 08:37:31;;;;;;;25.80;23.17;;;;;;;17.95;96.32;100746.44;4972909;28;20239;-47
2022/09/09 08:39:57;;;;;;;26.45;23.65;;;;;;;17.55;96.05;100754.59;4983362;28;20188;-48
2022/09/09 08:42:49;;;;;;;27.38;23.65;;;;;;;17.89;96.00;100752.28;4981988;28;20580;-47
2022/09/09 08:45:36;;;;;;;26.05;22.00;;;;;;;18.43;96.34;100751.16;4973755;28;20205;-47
2022/09/09 08:48:53;;;;;;;25.13;21.42;;;;;;;17.98;95.73;100761.63;4977933;28;20225;-47
2022/09/09 08:51:19;;;;;;;22.27;19.90;;;;;;;18.03;95.02;100759.44;4977973;28;20232;-47
2022/09/09 08:53:50;;;;;;;27.17;20.92;;;;;;;18.28;94.69;100759.44;4973591;28;20186;-48
2022/09/09 08:56:21;;;;;;;22.13;19.80;;;;;;;17.96;94.75;100763.56;4969422;28;20844;-48
2022/09/09 08:58:53;;;;;;;24.45;19.80;;;;;;;17.70;96.34;100768.94;4973782;28;20189;-47
2022/09/09 09:02:14;;;;;;;23.10;20.67;;;;;;;17.09;97.86;100758.56;4976458;28;20328;-48
2022/09/09 09:05:00;;;;;;;20.65;18.50;;;;;;;17.11;99.03;100766.59;4986038;28;20186;-47
2022/09/09 09:07:38;;;;;;;23.23;19.23;;;;;;;16.90;100.00;100777.00;4976869;28;20220;-46
2022/09/09 09:10:08;;;;;;;22.92;19.42;;;;;;;17.12;100.00;100767.47;4979161;28;20224;-47
2022/09/09 09:12:47;;;;;;;23.55;20.58;;;;;;;17.24;100.00;100769.34;4987274;28;20188;-47
2022/09/09 09:15:22;;;;;;;20.70;18.60;;;;;;;17.28;100.00;100782.59;4980721;28;20189;-47
2022/09/09 09:17:50;;;;;;;22.15;19.88;;;;;;;17.18;100.00;100777.88;4977340;28;20205;-46
2022/09/09 09:20:23;;;;;;;22.25;19.92;;;;;;;17.27;100.00;100778.16;4979928;28;20981;-43
2022/09/09 09:22:53;;;;;;;23.92;21.27;;;;;;;17.11;100.00;100780.13;4982565;28;20297;-44
2022/09/09 09:25:22;;;;;;;24.33;21.80;;;;;;;17.12;100.00;100784.59;4977997;28;20220;-44
2022/09/09 09:28:17;;;;;;;24.00;20.42;;;;;;;17.03;100.00;100785.19;4978837;28;20225;-44
2022/09/09 09:30:54;;;;;;;22.73;20.60;;;;;;;17.44;100.00;100789.66;4976503;28;20185;-45
2022/09/09 09:33:52;;;;;;;21.90;19.77;;;;;;;17.54;100.00;100779.09;4988390;28;20212;-45
2022/09/09 09:36:24;;;;;;;20.67;18.63;;;;;;;17.80;100.00;100785.41;4995056;28;20210;-45
2022/09/09 09:38:59;;;;;;;19.95;17.90;;;;;;;17.97;99.03;100781.56;4980194;28;20185;-44
2022/09/09 09:41:42;;;;;;;19.15;17.38;;;;;;;17.95;97.48;100787.13;4988066;28;20699;-44
2022/09/09 09:44:28;;;;;;;18.35;16.50;;;;;;;18.33;97.04;100773.53;4982590;28;20193;-42
2022/09/09 09:47:16;;;;;;;17.75;16.15;;;;;;;18.58;95.43;100784.47;4994183;28;20673;-44
2022/09/09 09:49:58;;;;;;;18.40;16.67;;;;;;;18.93;93.03;100773.75;4976146;28;20684;-43
2022/09/09 09:52:28;;;;;;;17.65;15.98;;;;;;;19.49;91.57;100771.31;4979515;28;20189;-43
2022/09/09 09:54:55;;;;;;;19.20;17.30;;;;;;;18.90;89.60;100774.84;4978760;28;20272;-44
2022/09/09 09:57:29;;;;;;;17.90;16.02;;;;;;;18.93;91.38;100779.19;4983821;28;20567;-43
2022/09/09 10:00:17;;;;;;;18.50;16.52;;;;;;;18.89;91.69;100773.13;4978787;28;20201;-44
2022/09/09 10:02:47;;;;;;;18.23;16.58;;;;;;;18.70;91.65;100773.59;4983800;28;20181;-42
2022/09/09 10:05:25;;;;;;;17.70;16.02;;;;;;;18.99;90.62;100773.31;4981547;28;20231;-44
2022/09/09 10:08:10;;;;;;;15.80;14.38;;;;;;;19.01;90.49;100773.19;4980578;28;20683;-43
2022/09/09 10:11:06;;;;;;;20.05;15.00;;;;;;;18.43;90.70;100775.56;4982426;28;20221;-46
2022/09/09 10:14:03;;;;;;;16.13;14.43;;;;;;;18.64;90.95;100789.44;4977560;28;20637;-44
2022/09/09 10:16:37;;;;;;;13.90;12.55;;;;;;;18.69;88.95;100788.16;4978124;28;20308;-48
2022/09/09 10:19:12;;;;;;;12.13;11.00;;;;;;;19.25;88.90;100784.94;4979343;28;20213;-48
2022/09/09 10:22:06;;;;;;;12.73;11.43;;;;;;;19.17;88.30;100781.91;4974130;28;20656;-47
2022/09/09 10:25:01;;;;;;;13.35;12.20;;;;;;;18.91;88.44;100783.84;4974790;28;20549;-47
2022/09/09 10:27:39;;;;;;;12.88;10.35;;;;;;;18.84;87.37;100769.00;4988280;28;20208;-46
2022/09/09 10:30:29;;;;;;;11.55;10.45;;;;;;;18.79;87.44;100774.78;4985864;28;20636;-46
2022/09/09 10:33:32;;;;;;;11.32;10.23;;;;;;;18.77;87.44;100767.72;4973451;28;20178;-47
2022/09/09 10:36:05;;;;;;;10.80;9.80;;;;;;;19.28;86.74;100771.09;4964977;28;20846;-48
2022/09/09 10:38:41;;;;;;;10.27;9.27;;;;;;;19.89;85.71;100764.69;4978830;28;20193;-46
2022/09/09 10:41:18;;;;;;;9.15;8.27;;;;;;;19.95;82.86;100784.09;4978184;28;20181;-46
2022/09/09 10:43:56;;;;;;;8.40;6.55;;;;;;;20.41;82.12;100767.84;4980017;28;20290;-46
2022/09/09 10:47:00;;;;;;;6.18;4.90;;;;;;;20.20;80.25;100767.69;4975595;28;20244;-48
2022/09/09 10:49:50;;;;;;;5.57;5.18;;;;;;;19.14;81.19;100782.16;4977358;28;20194;-48
2022/09/09 10:52:15;;;;;;;5.35;4.85;;;;;;;19.51;81.41;100780.22;4985848;28;20605;-46
2022/09/09 10:54:57;;;;;;;4.60;4.03;;;;;;;20.20;80.28;100775.84;4987033;28;20176;-47
2022/09/09 10:57:36;;;;;;;4.53;3.80;;;;;;;20.42;79.72;100770.41;4979199;28;20576;-47
2022/09/09 11:00:06;;;;;;;4.75;4.18;;;;;;;20.60;77.60;100776.28;4980893;28;20193;-47
2022/09/09 11:02:34;;;;;;;3.95;2.97;;;;;;;20.67;77.32;100777.50;4983413;28;20213;-48
2022/09/09 11:05:09;;;;;;;3.72;3.35;;;;;;;20.15;78.13;100771.66;4981162;28;20250;-46
2022/09/09 11:07:40;;;;;;;6.13;3.13;;;;;;;19.64;80.23;100765.72;4978597;28;20201;-48
2022/09/09 11:10:24;;;;;;;3.10;2.70;;;;;;;19.73;80.46;100775.91;4975683;28;20200;-46
2022/09/09 11:12:53;;;;;;;2.67;2.47;;;;;;;20.00;78.16;100774.72;4976264;28;20174;-49
2022/09/09 11:15:28;;;;;;;4.82;2.42;;;;;;;19.90;78.02;100777.31;4973416;28;20185;-49
2022/09/09 11:18:01;;;;;;;3.17;2.22;;;;;;;19.46;79.51;100776.13;4985211;28;20192;-48
2022/09/09 11:20:26;;;;;;;3.53;2.60;;;;;;;19.31;79.52;100776.31;4985489;28;20354;-46
2022/09/09 11:23:02;;;;;;;2.13;2.03;;;;;;;19.57;79.34;100770.75;4970761;28;20170;-47
2022/09/09 11:25:39;;;;;;;3.45;2.03;;;;;;;19.56;80.40;100779.88;4975591;28;20644;-46
2022/09/09 11:28:44;;;;;;;2.38;2.03;;;;;;;19.62;81.43;100781.28;4977441;28;20194;-45
2022/09/09 11:31:11;;;;;;;3.50;1.85;;;;;;;19.64;79.97;100784.75;4946561;28;20297;-48